sensor_id;sensor_type;location;lat;lon;timestamp;P1;durP1;ratioP1;P2;durP2;ratioP2
434;SDS011;204;48.942;9.256;2024-01-10T00:01:55;15.63;;;12.00;;
434;SDS011;204;48.942;9.256;2024-01-10T00:04:20;15.40;;;12.57;;
434;SDS011;204;48.942;9.256;2024-01-10T00:06:46;19.00;;;12.73;;
434;SDS011;204;48.942;9.256;2024-01-10T00:09:11;19.33;;;13.80;;
434;SDS011;204;48.942;9.256;2024-01-10T00:11:37;16.87;;;12.80;;
434;SDS011;204;48.942;9.256;2024-01-10T00:14:03;15.43;;;12.07;;
434;SDS011;204;48.942;9.256;2024-01-10T00:16:29;17.90;;;13.23;;
434;SDS011;204;48.942;9.256;2024-01-10T00:18:54;15.73;;;12.20;;
434;SDS011;204;48.942;9.256;2024-01-10T00:21:20;17.20;;;12.77;;
434;SDS011;204;48.942;9.256;2024-01-10T00:23:45;24.47;;;15.50;;
434;SDS011;204;48.942;9.256;2024-01-10T00:26:11;16.07;;;12.93;;
434;SDS011;204;48.942;9.256;2024-01-10T00:28:37;17.07;;;12.67;;
434;SDS011;204;48.942;9.256;2024-01-10T00:31:02;16.53;;;12.67;;
434;SDS011;204;48.942;9.256;2024-01-10T00:33:28;18.47;;;13.80;;
434;SDS011;204;48.942;9.256;2024-01-10T00:35:53;16.27;;;12.87;;
434;SDS011;204;48.942;9.256;2024-01-10T00:38:19;17.77;;;13.17;;
434;SDS011;204;48.942;9.256;2024-01-10T00:40:45;17.97;;;14.20;;
434;SDS011;204;48.942;9.256;2024-01-10T00:43:10;18.60;;;12.40;;
434;SDS011;204;48.942;9.256;2024-01-10T00:45:36;16.73;;;13.67;;
434;SDS011;204;48.942;9.256;2024-01-10T00:48:01;17.30;;;12.67;;
434;SDS011;204;48.942;9.256;2024-01-10T00:50:27;16.27;;;13.13;;
434;SDS011;204;48.942;9.256;2024-01-10T00:52:52;16.53;;;12.90;;
434;SDS011;204;48.942;9.256;2024-01-10T00:55:19;16.65;;;13.60;;
434;SDS011;204;48.942;9.256;2024-01-10T00:57:44;17.80;;;13.03;;
434;SDS011;204;48.942;9.256;2024-01-10T01:00:10;18.27;;;13.90;;
434;SDS011;204;48.942;9.256;2024-01-10T01:02:36;19.17;;;13.32;;
434;SDS011;204;48.942;9.256;2024-01-10T01:05:04;16.30;;;13.93;;
434;SDS011;204;48.942;9.256;2024-01-10T01:07:30;19.35;;;12.23;;
434;SDS011;204;48.942;9.256;2024-01-10T01:09:56;20.30;;;14.70;;
434;SDS011;204;48.942;9.256;2024-01-10T01:12:21;14.90;;;12.07;;
434;SDS011;204;48.942;9.256;2024-01-10T01:14:47;17.93;;;13.10;;
434;SDS011;204;48.942;9.256;2024-01-10T01:17:12;16.50;;;11.97;;
434;SDS011;204;48.942;9.256;2024-01-10T01:19:38;13.73;;;12.23;;
434;SDS011;204;48.942;9.256;2024-01-10T01:22:03;14.57;;;11.97;;
434;SDS011;204;48.942;9.256;2024-01-10T01:24:29;17.47;;;13.43;;
434;SDS011;204;48.942;9.256;2024-01-10T01:26:55;15.27;;;12.57;;
434;SDS011;204;48.942;9.256;2024-01-10T01:29:20;16.70;;;12.90;;
434;SDS011;204;48.942;9.256;2024-01-10T01:31:46;17.53;;;13.83;;
434;SDS011;204;48.942;9.256;2024-01-10T01:34:12;15.18;;;12.98;;
434;SDS011;204;48.942;9.256;2024-01-10T01:36:38;19.60;;;13.17;;
434;SDS011;204;48.942;9.256;2024-01-10T01:39:03;16.00;;;13.10;;
434;SDS011;204;48.942;9.256;2024-01-10T01:41:29;17.87;;;12.90;;
434;SDS011;204;48.942;9.256;2024-01-10T01:43:55;18.67;;;13.50;;
434;SDS011;204;48.942;9.256;2024-01-10T01:46:21;14.73;;;12.00;;
434;SDS011;204;48.942;9.256;2024-01-10T01:48:47;16.48;;;12.93;;
434;SDS011;204;48.942;9.256;2024-01-10T01:51:14;15.75;;;12.88;;
434;SDS011;204;48.942;9.256;2024-01-10T01:53:40;16.05;;;13.45;;
434;SDS011;204;48.942;9.256;2024-01-10T01:56:07;20.38;;;13.95;;
434;SDS011;204;48.942;9.256;2024-01-10T01:58:34;20.20;;;13.57;;
434;SDS011;204;48.942;9.256;2024-01-10T02:01:02;16.80;;;12.80;;
434;SDS011;204;48.942;9.256;2024-01-10T02:03:29;17.08;;;13.50;;
434;SDS011;204;48.942;9.256;2024-01-10T02:05:55;16.52;;;12.80;;
434;SDS011;204;48.942;9.256;2024-01-10T02:08:22;19.65;;;13.00;;
434;SDS011;204;48.942;9.256;2024-01-10T02:10:48;17.70;;;13.33;;
434;SDS011;204;48.942;9.256;2024-01-10T02:13:14;16.67;;;13.67;;
434;SDS011;204;48.942;9.256;2024-01-10T02:15:40;17.15;;;12.25;;
434;SDS011;204;48.942;9.256;2024-01-10T02:18:06;13.70;;;11.47;;
434;SDS011;204;48.942;9.256;2024-01-10T02:20:31;14.47;;;13.00;;
434;SDS011;204;48.942;9.256;2024-01-10T02:22:57;17.52;;;13.57;;
434;SDS011;204;48.942;9.256;2024-01-10T02:25:23;17.77;;;12.73;;
434;SDS011;204;48.942;9.256;2024-01-10T02:27:49;18.27;;;14.40;;
434;SDS011;204;48.942;9.256;2024-01-10T02:30:14;16.90;;;13.20;;
434;SDS011;204;48.942;9.256;2024-01-10T02:32:40;15.50;;;12.90;;
434;SDS011;204;48.942;9.256;2024-01-10T02:35:06;19.30;;;14.23;;
434;SDS011;204;48.942;9.256;2024-01-10T02:37:32;16.98;;;13.35;;
434;SDS011;204;48.942;9.256;2024-01-10T02:39:58;17.13;;;13.40;;
434;SDS011;204;48.942;9.256;2024-01-10T02:42:26;19.93;;;13.33;;
434;SDS011;204;48.942;9.256;2024-01-10T02:44:52;15.30;;;12.80;;
434;SDS011;204;48.942;9.256;2024-01-10T02:47:18;16.00;;;13.20;;
434;SDS011;204;48.942;9.256;2024-01-10T02:49:43;16.13;;;13.17;;
434;SDS011;204;48.942;9.256;2024-01-10T02:52:09;18.80;;;13.93;;
434;SDS011;204;48.942;9.256;2024-01-10T02:54:34;18.07;;;13.60;;
434;SDS011;204;48.942;9.256;2024-01-10T02:57:00;17.17;;;13.40;;
434;SDS011;204;48.942;9.256;2024-01-10T02:59:25;15.37;;;13.30;;
434;SDS011;204;48.942;9.256;2024-01-10T03:01:51;16.03;;;13.60;;
434;SDS011;204;48.942;9.256;2024-01-10T03:04:17;18.97;;;14.70;;
434;SDS011;204;48.942;9.256;2024-01-10T03:06:43;18.23;;;13.75;;
434;SDS011;204;48.942;9.256;2024-01-10T03:09:08;16.50;;;14.03;;
434;SDS011;204;48.942;9.256;2024-01-10T03:11:34;17.63;;;13.87;;
434;SDS011;204;48.942;9.256;2024-01-10T03:14:01;16.90;;;12.85;;
434;SDS011;204;48.942;9.256;2024-01-10T03:16:34;14.95;;;12.25;;
434;SDS011;204;48.942;9.256;2024-01-10T03:18:59;17.37;;;14.20;;
434;SDS011;204;48.942;9.256;2024-01-10T03:21:25;13.87;;;11.53;;
434;SDS011;204;48.942;9.256;2024-01-10T03:23:55;19.98;;;15.25;;
434;SDS011;204;48.942;9.256;2024-01-10T03:26:21;19.38;;;14.25;;
434;SDS011;204;48.942;9.256;2024-01-10T03:28:48;19.52;;;14.63;;
434;SDS011;204;48.942;9.256;2024-01-10T03:31:13;17.80;;;14.20;;
434;SDS011;204;48.942;9.256;2024-01-10T03:33:39;17.30;;;13.70;;
434;SDS011;204;48.942;9.256;2024-01-10T03:36:05;17.90;;;13.97;;
434;SDS011;204;48.942;9.256;2024-01-10T03:38:31;16.25;;;12.68;;
434;SDS011;204;48.942;9.256;2024-01-10T03:40:57;18.90;;;15.33;;
434;SDS011;204;48.942;9.256;2024-01-10T03:43:23;16.63;;;12.83;;
434;SDS011;204;48.942;9.256;2024-01-10T03:45:48;20.23;;;14.67;;
434;SDS011;204;48.942;9.256;2024-01-10T03:48:14;16.90;;;14.33;;
434;SDS011;204;48.942;9.256;2024-01-10T03:50:39;18.63;;;13.83;;
434;SDS011;204;48.942;9.256;2024-01-10T03:53:05;23.00;;;15.00;;
434;SDS011;204;48.942;9.256;2024-01-10T03:55:31;21.33;;;14.35;;
434;SDS011;204;48.942;9.256;2024-01-10T03:57:57;16.37;;;13.83;;
434;SDS011;204;48.942;9.256;2024-01-10T04:00:22;18.00;;;14.17;;
434;SDS011;204;48.942;9.256;2024-01-10T04:02:48;15.73;;;13.03;;
434;SDS011;204;48.942;9.256;2024-01-10T04:05:14;17.00;;;14.97;;
434;SDS011;204;48.942;9.256;2024-01-10T04:07:42;21.37;;;15.20;;
434;SDS011;204;48.942;9.256;2024-01-10T04:10:11;20.73;;;14.35;;
434;SDS011;204;48.942;9.256;2024-01-10T04:12:45;19.73;;;14.23;;
434;SDS011;204;48.942;9.256;2024-01-10T04:15:11;20.30;;;15.05;;
434;SDS011;204;48.942;9.256;2024-01-10T04:17:37;23.40;;;15.85;;
434;SDS011;204;48.942;9.256;2024-01-10T04:20:03;22.35;;;15.77;;
434;SDS011;204;48.942;9.256;2024-01-10T04:22:29;18.42;;;13.07;;
434;SDS011;204;48.942;9.256;2024-01-10T04:24:58;21.30;;;14.43;;
434;SDS011;204;48.942;9.256;2024-01-10T04:27:25;19.17;;;14.10;;
434;SDS011;204;48.942;9.256;2024-01-10T04:29:51;18.75;;;14.35;;
434;SDS011;204;48.942;9.256;2024-01-10T04:32:17;23.25;;;15.95;;
434;SDS011;204;48.942;9.256;2024-01-10T04:34:43;20.40;;;14.13;;
434;SDS011;204;48.942;9.256;2024-01-10T04:37:08;21.00;;;15.33;;
434;SDS011;204;48.942;9.256;2024-01-10T04:39:34;20.73;;;15.23;;
434;SDS011;204;48.942;9.256;2024-01-10T04:42:00;18.35;;;14.65;;
434;SDS011;204;48.942;9.256;2024-01-10T04:44:26;19.73;;;15.70;;
434;SDS011;204;48.942;9.256;2024-01-10T04:46:51;19.10;;;15.13;;
434;SDS011;204;48.942;9.256;2024-01-10T04:49:17;19.90;;;14.60;;
434;SDS011;204;48.942;9.256;2024-01-10T04:51:42;17.17;;;13.83;;
434;SDS011;204;48.942;9.256;2024-01-10T04:54:08;20.00;;;15.00;;
434;SDS011;204;48.942;9.256;2024-01-10T04:56:34;19.63;;;15.83;;
434;SDS011;204;48.942;9.256;2024-01-10T04:59:01;18.35;;;15.20;;
434;SDS011;204;48.942;9.256;2024-01-10T05:01:27;18.30;;;14.63;;
434;SDS011;204;48.942;9.256;2024-01-10T05:03:52;20.30;;;16.17;;
434;SDS011;204;48.942;9.256;2024-01-10T05:06:18;20.27;;;15.30;;
434;SDS011;204;48.942;9.256;2024-01-10T05:08:44;17.60;;;14.47;;
434;SDS011;204;48.942;9.256;2024-01-10T05:11:09;20.27;;;16.10;;
434;SDS011;204;48.942;9.256;2024-01-10T05:13:35;18.67;;;14.82;;
434;SDS011;204;48.942;9.256;2024-01-10T05:16:01;20.97;;;16.00;;
434;SDS011;204;48.942;9.256;2024-01-10T05:18:28;17.50;;;15.33;;
434;SDS011;204;48.942;9.256;2024-01-10T05:20:53;18.00;;;15.13;;
434;SDS011;204;48.942;9.256;2024-01-10T05:23:19;18.57;;;14.73;;
434;SDS011;204;48.942;9.256;2024-01-10T05:25:45;18.80;;;16.38;;
434;SDS011;204;48.942;9.256;2024-01-10T05:28:11;20.80;;;15.30;;
434;SDS011;204;48.942;9.256;2024-01-10T05:30:36;20.53;;;16.10;;
434;SDS011;204;48.942;9.256;2024-01-10T05:33:02;20.10;;;16.00;;
434;SDS011;204;48.942;9.256;2024-01-10T05:35:28;17.60;;;14.47;;
434;SDS011;204;48.942;9.256;2024-01-10T05:37:53;17.37;;;14.70;;
434;SDS011;204;48.942;9.256;2024-01-10T05:40:19;19.05;;;15.55;;
434;SDS011;204;48.942;9.256;2024-01-10T05:42:45;18.37;;;15.13;;
434;SDS011;204;48.942;9.256;2024-01-10T05:45:11;20.30;;;14.67;;
434;SDS011;204;48.942;9.256;2024-01-10T05:47:36;19.33;;;16.53;;
434;SDS011;204;48.942;9.256;2024-01-10T05:50:02;19.93;;;16.10;;
434;SDS011;204;48.942;9.256;2024-01-10T05:52:31;20.05;;;16.15;;
434;SDS011;204;48.942;9.256;2024-01-10T05:54:58;21.85;;;16.05;;
434;SDS011;204;48.942;9.256;2024-01-10T05:57:24;17.70;;;14.77;;
434;SDS011;204;48.942;9.256;2024-01-10T05:59:49;21.10;;;16.03;;
434;SDS011;204;48.942;9.256;2024-01-10T06:02:17;17.83;;;14.88;;
434;SDS011;204;48.942;9.256;2024-01-10T06:04:43;21.10;;;17.27;;
434;SDS011;204;48.942;9.256;2024-01-10T06:07:08;20.43;;;16.10;;
434;SDS011;204;48.942;9.256;2024-01-10T06:09:34;20.57;;;16.57;;
434;SDS011;204;48.942;9.256;2024-01-10T06:11:59;19.80;;;16.70;;
434;SDS011;204;48.942;9.256;2024-01-10T06:14:25;21.10;;;16.50;;
434;SDS011;204;48.942;9.256;2024-01-10T06:16:51;18.00;;;15.33;;
434;SDS011;204;48.942;9.256;2024-01-10T06:19:16;21.40;;;15.80;;
434;SDS011;204;48.942;9.256;2024-01-10T06:21:43;23.40;;;16.92;;
434;SDS011;204;48.942;9.256;2024-01-10T06:24:09;25.73;;;17.17;;
434;SDS011;204;48.942;9.256;2024-01-10T06:26:34;23.00;;;17.00;;
434;SDS011;204;48.942;9.256;2024-01-10T06:29:00;21.97;;;17.00;;
434;SDS011;204;48.942;9.256;2024-01-10T06:31:25;22.30;;;17.53;;
434;SDS011;204;48.942;9.256;2024-01-10T06:33:51;20.40;;;16.97;;
434;SDS011;204;48.942;9.256;2024-01-10T06:36:16;21.57;;;16.70;;
434;SDS011;204;48.942;9.256;2024-01-10T06:38:42;22.60;;;16.33;;
434;SDS011;204;48.942;9.256;2024-01-10T06:41:08;20.17;;;16.63;;
434;SDS011;204;48.942;9.256;2024-01-10T06:43:38;22.85;;;17.63;;
434;SDS011;204;48.942;9.256;2024-01-10T06:46:03;21.55;;;17.80;;
434;SDS011;204;48.942;9.256;2024-01-10T06:48:29;22.20;;;16.97;;
434;SDS011;204;48.942;9.256;2024-01-10T06:50:55;18.67;;;16.67;;
434;SDS011;204;48.942;9.256;2024-01-10T06:53:23;22.67;;;17.20;;
434;SDS011;204;48.942;9.256;2024-01-10T06:55:49;21.20;;;16.93;;
434;SDS011;204;48.942;9.256;2024-01-10T06:58:14;20.43;;;16.40;;
434;SDS011;204;48.942;9.256;2024-01-10T07:00:40;21.20;;;15.83;;
434;SDS011;204;48.942;9.256;2024-01-10T07:03:06;21.00;;;16.15;;
434;SDS011;204;48.942;9.256;2024-01-10T07:05:32;21.03;;;15.93;;
434;SDS011;204;48.942;9.256;2024-01-10T07:07:58;21.13;;;17.00;;
434;SDS011;204;48.942;9.256;2024-01-10T07:10:24;19.67;;;16.25;;
434;SDS011;204;48.942;9.256;2024-01-10T07:12:53;28.17;;;17.48;;
434;SDS011;204;48.942;9.256;2024-01-10T07:15:20;19.90;;;15.80;;
434;SDS011;204;48.942;9.256;2024-01-10T07:17:46;22.30;;;16.80;;
434;SDS011;204;48.942;9.256;2024-01-10T07:20:11;21.40;;;17.43;;
434;SDS011;204;48.942;9.256;2024-01-10T07:22:37;18.70;;;16.80;;
434;SDS011;204;48.942;9.256;2024-01-10T07:25:09;23.42;;;16.30;;
434;SDS011;204;48.942;9.256;2024-01-10T07:27:42;20.00;;;17.17;;
434;SDS011;204;48.942;9.256;2024-01-10T07:30:09;20.40;;;16.67;;
434;SDS011;204;48.942;9.256;2024-01-10T07:32:41;21.48;;;18.23;;
434;SDS011;204;48.942;9.256;2024-01-10T07:35:07;23.52;;;18.52;;
434;SDS011;204;48.942;9.256;2024-01-10T07:37:35;22.10;;;17.48;;
434;SDS011;204;48.942;9.256;2024-01-10T07:40:01;27.10;;;18.80;;
434;SDS011;204;48.942;9.256;2024-01-10T07:42:29;24.85;;;18.45;;
434;SDS011;204;48.942;9.256;2024-01-10T07:44:56;23.30;;;17.63;;
434;SDS011;204;48.942;9.256;2024-01-10T07:47:22;27.23;;;17.63;;
434;SDS011;204;48.942;9.256;2024-01-10T07:49:47;21.53;;;16.20;;
434;SDS011;204;48.942;9.256;2024-01-10T07:52:13;21.73;;;16.43;;
434;SDS011;204;48.942;9.256;2024-01-10T07:54:41;22.40;;;17.50;;
434;SDS011;204;48.942;9.256;2024-01-10T07:57:07;20.47;;;17.20;;
434;SDS011;204;48.942;9.256;2024-01-10T07:59:32;23.27;;;18.20;;
434;SDS011;204;48.942;9.256;2024-01-10T08:01:59;19.83;;;16.63;;
434;SDS011;204;48.942;9.256;2024-01-10T08:04:26;26.38;;;17.23;;
434;SDS011;204;48.942;9.256;2024-01-10T08:06:52;24.77;;;18.60;;
434;SDS011;204;48.942;9.256;2024-01-10T08:09:18;21.70;;;16.77;;
434;SDS011;204;48.942;9.256;2024-01-10T08:11:44;18.60;;;16.30;;
434;SDS011;204;48.942;9.256;2024-01-10T08:14:11;21.13;;;17.75;;
434;SDS011;204;48.942;9.256;2024-01-10T08:16:37;22.02;;;18.75;;
434;SDS011;204;48.942;9.256;2024-01-10T08:19:02;23.73;;;17.73;;
434;SDS011;204;48.942;9.256;2024-01-10T08:21:28;21.53;;;18.30;;
434;SDS011;204;48.942;9.256;2024-01-10T08:23:54;22.93;;;17.57;;
434;SDS011;204;48.942;9.256;2024-01-10T08:26:19;23.03;;;17.50;;
434;SDS011;204;48.942;9.256;2024-01-10T08:28:45;24.60;;;17.50;;
434;SDS011;204;48.942;9.256;2024-01-10T08:31:11;25.70;;;18.73;;
434;SDS011;204;48.942;9.256;2024-01-10T08:33:37;20.35;;;17.40;;
434;SDS011;204;48.942;9.256;2024-01-10T08:36:04;20.17;;;16.25;;
434;SDS011;204;48.942;9.256;2024-01-10T08:38:30;21.77;;;16.98;;
434;SDS011;204;48.942;9.256;2024-01-10T08:40:56;22.47;;;16.10;;
434;SDS011;204;48.942;9.256;2024-01-10T08:43:21;21.90;;;16.90;;
434;SDS011;204;48.942;9.256;2024-01-10T08:45:47;20.50;;;17.50;;
434;SDS011;204;48.942;9.256;2024-01-10T08:48:12;25.87;;;18.47;;
434;SDS011;204;48.942;9.256;2024-01-10T08:50:38;22.57;;;17.80;;
434;SDS011;204;48.942;9.256;2024-01-10T08:53:04;19.90;;;18.23;;
434;SDS011;204;48.942;9.256;2024-01-10T08:55:31;22.75;;;17.70;;
434;SDS011;204;48.942;9.256;2024-01-10T08:57:57;24.38;;;17.85;;
434;SDS011;204;48.942;9.256;2024-01-10T09:00:22;24.00;;;17.10;;
434;SDS011;204;48.942;9.256;2024-01-10T09:02:49;22.73;;;17.15;;
434;SDS011;204;48.942;9.256;2024-01-10T09:05:15;22.65;;;17.75;;
434;SDS011;204;48.942;9.256;2024-01-10T09:07:41;23.27;;;17.90;;
434;SDS011;204;48.942;9.256;2024-01-10T09:10:07;19.98;;;16.65;;
434;SDS011;204;48.942;9.256;2024-01-10T09:12:33;19.45;;;16.38;;
434;SDS011;204;48.942;9.256;2024-01-10T09:14:59;22.13;;;17.73;;
434;SDS011;204;48.942;9.256;2024-01-10T09:17:25;23.17;;;15.98;;
434;SDS011;204;48.942;9.256;2024-01-10T09:19:53;28.13;;;22.08;;
434;SDS011;204;48.942;9.256;2024-01-10T09:22:18;22.83;;;18.30;;
434;SDS011;204;48.942;9.256;2024-01-10T09:24:44;23.93;;;18.83;;
434;SDS011;204;48.942;9.256;2024-01-10T09:27:10;21.30;;;17.30;;
434;SDS011;204;48.942;9.256;2024-01-10T09:29:36;23.02;;;17.88;;
434;SDS011;204;48.942;9.256;2024-01-10T09:32:01;27.40;;;20.07;;
434;SDS011;204;48.942;9.256;2024-01-10T09:34:27;27.43;;;19.17;;
434;SDS011;204;48.942;9.256;2024-01-10T09:36:53;26.47;;;18.50;;
434;SDS011;204;48.942;9.256;2024-01-10T09:39:19;23.23;;;19.33;;
434;SDS011;204;48.942;9.256;2024-01-10T09:41:48;24.87;;;18.70;;
434;SDS011;204;48.942;9.256;2024-01-10T09:44:15;25.17;;;20.02;;
434;SDS011;204;48.942;9.256;2024-01-10T09:46:51;27.33;;;21.50;;
434;SDS011;204;48.942;9.256;2024-01-10T09:49:18;23.88;;;19.52;;
434;SDS011;204;48.942;9.256;2024-01-10T09:51:48;26.92;;;20.25;;
434;SDS011;204;48.942;9.256;2024-01-10T09:54:15;25.73;;;20.15;;
434;SDS011;204;48.942;9.256;2024-01-10T09:56:41;25.88;;;20.48;;
434;SDS011;204;48.942;9.256;2024-01-10T09:59:07;27.63;;;21.13;;
434;SDS011;204;48.942;9.256;2024-01-10T10:01:36;26.38;;;21.60;;
434;SDS011;204;48.942;9.256;2024-01-10T10:04:04;25.83;;;22.75;;
434;SDS011;204;48.942;9.256;2024-01-10T10:06:32;26.25;;;19.50;;
434;SDS011;204;48.942;9.256;2024-01-10T10:08:59;29.10;;;21.40;;
434;SDS011;204;48.942;9.256;2024-01-10T10:11:24;23.87;;;19.60;;
434;SDS011;204;48.942;9.256;2024-01-10T10:13:50;25.50;;;20.23;;
434;SDS011;204;48.942;9.256;2024-01-10T10:16:22;29.10;;;21.17;;
434;SDS011;204;48.942;9.256;2024-01-10T10:18:51;26.80;;;20.73;;
434;SDS011;204;48.942;9.256;2024-01-10T10:21:24;24.23;;;20.13;;
434;SDS011;204;48.942;9.256;2024-01-10T10:23:58;24.85;;;21.00;;
434;SDS011;204;48.942;9.256;2024-01-10T10:26:26;22.85;;;20.63;;
434;SDS011;204;48.942;9.256;2024-01-10T10:28:52;23.27;;;19.45;;
434;SDS011;204;48.942;9.256;2024-01-10T10:31:19;25.50;;;20.63;;
434;SDS011;204;48.942;9.256;2024-01-10T10:33:45;31.10;;;25.27;;
434;SDS011;204;48.942;9.256;2024-01-10T10:36:13;29.77;;;27.02;;
434;SDS011;204;48.942;9.256;2024-01-10T10:38:39;30.70;;;25.02;;
434;SDS011;204;48.942;9.256;2024-01-10T10:41:05;31.30;;;24.33;;
434;SDS011;204;48.942;9.256;2024-01-10T10:43:35;25.92;;;20.92;;
434;SDS011;204;48.942;9.256;2024-01-10T10:46:02;26.73;;;21.35;;
434;SDS011;204;48.942;9.256;2024-01-10T10:48:31;26.50;;;20.77;;
434;SDS011;204;48.942;9.256;2024-01-10T10:51:09;28.83;;;23.13;;
434;SDS011;204;48.942;9.256;2024-01-10T10:53:37;26.70;;;20.80;;
434;SDS011;204;48.942;9.256;2024-01-10T10:56:05;24.80;;;20.38;;
434;SDS011;204;48.942;9.256;2024-01-10T10:58:33;28.17;;;21.67;;
434;SDS011;204;48.942;9.256;2024-01-10T11:01:04;26.85;;;22.27;;
434;SDS011;204;48.942;9.256;2024-01-10T11:03:31;27.40;;;20.90;;
434;SDS011;204;48.942;9.256;2024-01-10T11:05:59;29.10;;;22.45;;
434;SDS011;204;48.942;9.256;2024-01-10T11:08:27;25.90;;;22.88;;
434;SDS011;204;48.942;9.256;2024-01-10T11:10:58;28.20;;;22.23;;
434;SDS011;204;48.942;9.256;2024-01-10T11:13:27;26.63;;;22.13;;
434;SDS011;204;48.942;9.256;2024-01-10T11:16:24;25.85;;;21.60;;
434;SDS011;204;48.942;9.256;2024-01-10T11:21:47;26.70;;;21.52;;
434;SDS011;204;48.942;9.256;2024-01-10T11:24:16;26.55;;;22.77;;
434;SDS011;204;48.942;9.256;2024-01-10T11:26:42;30.08;;;22.50;;
434;SDS011;204;48.942;9.256;2024-01-10T11:29:10;25.17;;;22.27;;
434;SDS011;204;48.942;9.256;2024-01-10T11:31:36;27.40;;;20.90;;
434;SDS011;204;48.942;9.256;2024-01-10T11:34:04;28.83;;;21.75;;
434;SDS011;204;48.942;9.256;2024-01-10T11:36:29;32.03;;;24.03;;
434;SDS011;204;48.942;9.256;2024-01-10T11:39:03;26.13;;;22.17;;
434;SDS011;204;48.942;9.256;2024-01-10T11:41:34;29.05;;;22.40;;
434;SDS011;204;48.942;9.256;2024-01-10T11:46:43;33.35;;;23.88;;
434;SDS011;204;48.942;9.256;2024-01-10T11:49:09;28.00;;;23.92;;
434;SDS011;204;48.942;9.256;2024-01-10T11:51:36;27.27;;;20.23;;
434;SDS011;204;48.942;9.256;2024-01-10T11:54:02;27.03;;;23.10;;
434;SDS011;204;48.942;9.256;2024-01-10T11:56:37;34.57;;;27.67;;
434;SDS011;204;48.942;9.256;2024-01-10T11:59:07;27.17;;;21.80;;
434;SDS011;204;48.942;9.256;2024-01-10T12:01:34;30.23;;;23.27;;
434;SDS011;204;48.942;9.256;2024-01-10T12:04:01;26.35;;;22.25;;
434;SDS011;204;48.942;9.256;2024-01-10T12:06:28;27.30;;;22.73;;
434;SDS011;204;48.942;9.256;2024-01-10T12:08:54;25.63;;;21.27;;
434;SDS011;204;48.942;9.256;2024-01-10T12:11:20;29.33;;;23.15;;
434;SDS011;204;48.942;9.256;2024-01-10T12:13:47;26.83;;;22.87;;
434;SDS011;204;48.942;9.256;2024-01-10T12:16:12;31.17;;;25.05;;
434;SDS011;204;48.942;9.256;2024-01-10T12:18:42;34.72;;;25.90;;
434;SDS011;204;48.942;9.256;2024-01-10T12:21:08;36.60;;;23.50;;
434;SDS011;204;48.942;9.256;2024-01-10T12:23:38;32.47;;;24.85;;
434;SDS011;204;48.942;9.256;2024-01-10T12:26:08;33.67;;;25.73;;
434;SDS011;204;48.942;9.256;2024-01-10T12:28:36;32.08;;;24.42;;
434;SDS011;204;48.942;9.256;2024-01-10T12:31:05;29.20;;;22.87;;
434;SDS011;204;48.942;9.256;2024-01-10T12:33:36;33.70;;;24.83;;
434;SDS011;204;48.942;9.256;2024-01-10T12:36:11;26.23;;;22.50;;
434;SDS011;204;48.942;9.256;2024-01-10T12:38:40;28.15;;;23.65;;
434;SDS011;204;48.942;9.256;2024-01-10T12:41:06;29.30;;;23.02;;
434;SDS011;204;48.942;9.256;2024-01-10T12:43:34;28.33;;;23.88;;
434;SDS011;204;48.942;9.256;2024-01-10T12:46:06;32.10;;;24.63;;
434;SDS011;204;48.942;9.256;2024-01-10T12:48:33;32.55;;;23.45;;
434;SDS011;204;48.942;9.256;2024-01-10T12:51:01;29.33;;;23.98;;
434;SDS011;204;48.942;9.256;2024-01-10T12:53:31;30.50;;;22.17;;
434;SDS011;204;48.942;9.256;2024-01-10T12:56:01;32.08;;;24.55;;
434;SDS011;204;48.942;9.256;2024-01-10T12:58:27;28.13;;;23.08;;
434;SDS011;204;48.942;9.256;2024-01-10T13:00:53;28.55;;;23.52;;
434;SDS011;204;48.942;9.256;2024-01-10T13:03:18;30.60;;;22.30;;
434;SDS011;204;48.942;9.256;2024-01-10T13:05:44;28.52;;;22.33;;
434;SDS011;204;48.942;9.256;2024-01-10T13:08:10;27.20;;;23.90;;
434;SDS011;204;48.942;9.256;2024-01-10T13:10:37;31.75;;;23.83;;
434;SDS011;204;48.942;9.256;2024-01-10T13:13:03;28.13;;;22.75;;
434;SDS011;204;48.942;9.256;2024-01-10T13:15:29;23.90;;;20.67;;
434;SDS011;204;48.942;9.256;2024-01-10T13:17:55;24.53;;;21.60;;
434;SDS011;204;48.942;9.256;2024-01-10T13:20:21;29.38;;;22.63;;
434;SDS011;204;48.942;9.256;2024-01-10T13:22:47;29.50;;;22.57;;
434;SDS011;204;48.942;9.256;2024-01-10T13:25:12;30.80;;;23.00;;
434;SDS011;204;48.942;9.256;2024-01-10T13:27:40;30.42;;;24.67;;
434;SDS011;204;48.942;9.256;2024-01-10T13:30:05;28.20;;;23.60;;
434;SDS011;204;48.942;9.256;2024-01-10T13:32:31;34.08;;;25.98;;
434;SDS011;204;48.942;9.256;2024-01-10T13:34:57;30.50;;;25.63;;
434;SDS011;204;48.942;9.256;2024-01-10T13:37:22;31.73;;;24.13;;
434;SDS011;204;48.942;9.256;2024-01-10T13:39:48;31.73;;;24.90;;
434;SDS011;204;48.942;9.256;2024-01-10T13:42:14;29.50;;;25.00;;
434;SDS011;204;48.942;9.256;2024-01-10T13:44:39;28.17;;;23.10;;
434;SDS011;204;48.942;9.256;2024-01-10T13:47:06;28.80;;;22.80;;
434;SDS011;204;48.942;9.256;2024-01-10T13:49:31;30.97;;;24.27;;
434;SDS011;204;48.942;9.256;2024-01-10T13:51:57;33.50;;;24.97;;
434;SDS011;204;48.942;9.256;2024-01-10T13:54:22;34.23;;;27.97;;
434;SDS011;204;48.942;9.256;2024-01-10T13:56:48;47.73;;;35.73;;
434;SDS011;204;48.942;9.256;2024-01-10T13:59:13;47.23;;;32.00;;
434;SDS011;204;48.942;9.256;2024-01-10T14:01:39;46.83;;;32.40;;
434;SDS011;204;48.942;9.256;2024-01-10T14:04:05;33.93;;;27.30;;
434;SDS011;204;48.942;9.256;2024-01-10T14:06:31;35.00;;;29.10;;
434;SDS011;204;48.942;9.256;2024-01-10T14:08:56;32.17;;;25.00;;
434;SDS011;204;48.942;9.256;2024-01-10T14:11:22;29.17;;;23.33;;
434;SDS011;204;48.942;9.256;2024-01-10T14:13:49;31.02;;;24.65;;
434;SDS011;204;48.942;9.256;2024-01-10T14:16:15;30.73;;;23.17;;
434;SDS011;204;48.942;9.256;2024-01-10T14:18:40;29.80;;;23.53;;
434;SDS011;204;48.942;9.256;2024-01-10T14:21:06;27.23;;;23.83;;
434;SDS011;204;48.942;9.256;2024-01-10T14:23:32;31.85;;;23.98;;
434;SDS011;204;48.942;9.256;2024-01-10T14:25:58;31.30;;;23.93;;
434;SDS011;204;48.942;9.256;2024-01-10T14:28:24;31.33;;;23.77;;
434;SDS011;204;48.942;9.256;2024-01-10T14:30:50;31.85;;;23.73;;
434;SDS011;204;48.942;9.256;2024-01-10T14:33:16;28.57;;;23.40;;
434;SDS011;204;48.942;9.256;2024-01-10T14:35:43;27.85;;;22.67;;
434;SDS011;204;48.942;9.256;2024-01-10T14:38:09;30.60;;;23.98;;
434;SDS011;204;48.942;9.256;2024-01-10T14:40:35;32.30;;;24.63;;
434;SDS011;204;48.942;9.256;2024-01-10T14:43:01;30.50;;;22.67;;
434;SDS011;204;48.942;9.256;2024-01-10T14:45:26;34.83;;;26.17;;
434;SDS011;204;48.942;9.256;2024-01-10T14:47:52;28.85;;;23.38;;
434;SDS011;204;48.942;9.256;2024-01-10T14:50:18;29.23;;;22.40;;
434;SDS011;204;48.942;9.256;2024-01-10T14:52:48;29.63;;;24.00;;
434;SDS011;204;48.942;9.256;2024-01-10T14:55:14;28.23;;;24.27;;
434;SDS011;204;48.942;9.256;2024-01-10T14:57:40;32.93;;;24.53;;
434;SDS011;204;48.942;9.256;2024-01-10T15:00:05;29.20;;;24.27;;
434;SDS011;204;48.942;9.256;2024-01-10T15:02:32;29.80;;;23.52;;
434;SDS011;204;48.942;9.256;2024-01-10T15:04:57;30.30;;;23.43;;
434;SDS011;204;48.942;9.256;2024-01-10T15:07:23;31.40;;;24.47;;
434;SDS011;204;48.942;9.256;2024-01-10T15:09:48;29.17;;;23.77;;
434;SDS011;204;48.942;9.256;2024-01-10T15:12:14;31.40;;;24.73;;
434;SDS011;204;48.942;9.256;2024-01-10T15:14:39;29.23;;;24.10;;
434;SDS011;204;48.942;9.256;2024-01-10T15:17:05;31.10;;;23.70;;